createdAt,value
2017-03-23T03:39:12.343Z,0
2017-03-23T03:49:20.241Z,0
2017-03-23T03:50:30.528Z,0
2017-03-23T03:51:40.790Z,0
2017-03-23T03:52:51.160Z,0
2017-03-23T03:54:01.422Z,0
2017-03-23T03:55:12.010Z,0
2017-03-23T03:56:22.278Z,0
2017-03-23T03:57:32.261Z,0
2017-03-23T03:58:42.211Z,0
2017-03-23T03:59:52.479Z,0
2017-03-23T04:01:02.385Z,0
2017-03-23T04:02:12.684Z,0
2017-03-23T04:03:22.332Z,0
2017-03-23T04:04:32.599Z,0
2017-03-23T04:05:42.557Z,0
2017-03-23T04:06:53.067Z,0
2017-03-23T04:08:03.334Z,0
2017-03-23T04:09:13.293Z,0
2017-03-23T04:10:23.562Z,0
2017-03-23T04:11:33.829Z,0
2017-03-23T04:12:44.078Z,0
2017-03-23T04:13:54.353Z,0
2017-03-23T04:15:04.613Z,0
2017-03-23T04:16:14.264Z,0
2017-03-23T04:17:24.526Z,0
2017-03-23T04:18:35.049Z,0
2017-03-23T04:19:45.312Z,0
2017-03-23T04:20:54.952Z,0
2017-03-23T04:22:05.222Z,0
2017-03-23T04:23:14.864Z,0
2017-03-23T04:24:25.074Z,0
2017-03-23T04:25:35.024Z,0
2017-03-23T04:26:45.299Z,0
2017-03-23T04:27:55.264Z,0
2017-03-23T04:29:05.530Z,0
2017-03-23T04:30:16.106Z,0
2017-03-23T04:31:25.437Z,0
2017-03-23T04:32:35.708Z,0
2017-03-23T04:33:45.669Z,0
2017-03-23T04:34:55.937Z,0
2017-03-23T04:36:06.514Z,0
2017-03-23T04:37:16.786Z,0
2017-03-23T04:38:27.072Z,0
2017-03-23T04:39:36.722Z,0
2017-03-23T04:40:46.995Z,0
2017-03-23T04:41:57.193Z,0
2017-03-23T04:43:07.145Z,0
2017-03-23T04:44:16.165Z,0
2017-03-23T04:45:26.437Z,0
2017-03-23T04:46:36.703Z,0
2017-03-23T04:47:47.222Z,0
2017-03-23T04:48:57.180Z,0
2017-03-23T04:50:07.451Z,0
2017-03-23T04:51:17.721Z,0
2017-03-23T04:52:27.368Z,0
2017-03-23T04:53:37.566Z,0
2017-03-23T04:54:47.835Z,0
2017-03-23T04:55:58.097Z,0
2017-03-23T04:57:07.439Z,0
2017-03-23T04:58:17.396Z,0
2017-03-23T04:59:27.920Z,0
2017-03-23T05:00:38.196Z,0
2017-03-23T05:01:48.469Z,0
2017-03-23T05:02:58.740Z,0
2017-03-23T05:04:08.376Z,0
2017-03-23T05:05:18.316Z,0
2017-03-23T05:06:27.955Z,0
2017-03-23T05:07:38.236Z,0
2017-03-23T05:08:48.736Z,0
2017-03-23T05:09:59.010Z,0
2017-03-23T05:11:09.231Z,0
2017-03-23T05:12:19.194Z,0
2017-03-23T05:13:29.474Z,0
2017-03-23T05:14:39.431Z,0
2017-03-23T05:15:49.386Z,0
2017-03-23T05:16:59.641Z,0
2017-03-23T05:18:09.925Z,0
2017-03-23T05:19:19.563Z,0
2017-03-23T05:20:30.136Z,0
2017-03-23T05:21:39.774Z,0
2017-03-23T05:22:49.979Z,0
2017-03-23T05:23:59.936Z,0
2017-03-23T05:25:10.206Z,0
2017-03-23T05:26:20.165Z,0
2017-03-23T05:27:30.432Z,5
2017-03-23T05:28:40.641Z,5
2017-03-23T05:29:50.912Z,5
2017-03-23T05:31:01.184Z,5
2017-03-23T05:32:11.459Z,5
2017-03-23T05:33:21.732Z,5
2017-03-23T05:34:31.685Z,5
2017-03-23T05:35:41.947Z,5
2017-03-23T05:36:52.231Z,5
2017-03-23T05:38:02.496Z,5
2017-03-23T05:39:12.448Z,5
2017-03-23T05:40:22.703Z,10
2017-03-23T05:41:32.666Z,10
2017-03-23T05:42:42.929Z,10
2017-03-23T05:43:53.198Z,10
2017-03-23T05:45:03.168Z,10
2017-03-23T05:46:13.373Z,10
2017-03-23T05:47:23.330Z,10
2017-03-23T05:48:33.637Z,10
2017-03-23T05:49:43.589Z,10
2017-03-23T05:50:53.862Z,10
2017-03-23T05:52:04.385Z,10
2017-03-23T05:53:14.344Z,10
2017-03-23T05:54:24.298Z,10
2017-03-23T05:55:33.324Z,10
2017-03-23T05:56:43.285Z,10
2017-03-23T05:57:53.539Z,10
2017-03-23T05:59:03.822Z,10
2017-03-23T06:00:14.322Z,15
2017-03-23T06:01:24.596Z,15
2017-03-23T06:02:34.875Z,15
2017-03-23T06:03:45.093Z,15
2017-03-23T06:04:55.056Z,15
2017-03-23T06:06:05.323Z,10
2017-03-23T06:07:15.595Z,10
2017-03-23T06:08:25.859Z,10
2017-03-23T06:09:36.078Z,10
2017-03-23T06:10:46.057Z,10
2017-03-23T06:11:56.329Z,10
2017-03-23T06:13:06.291Z,10
2017-03-23T06:14:16.251Z,10
2017-03-23T06:15:26.822Z,10
2017-03-23T06:16:37.095Z,10
2017-03-23T06:17:47.065Z,10
2017-03-23T06:18:57.339Z,10
2017-03-23T06:20:07.299Z,15
2017-03-23T06:21:17.818Z,15
2017-03-23T06:22:28.111Z,15
2017-03-23T06:23:38.389Z,15
2017-03-23T06:24:48.660Z,15
2017-03-23T06:25:58.928Z,15
2017-03-23T06:27:09.600Z,15
2017-03-23T06:28:19.870Z,15
2017-03-23T06:29:29.826Z,15
2017-03-23T06:30:39.471Z,15
2017-03-23T06:31:49.750Z,15
2017-03-23T06:33:00.325Z,15
2017-03-23T06:34:10.719Z,20
2017-03-23T06:35:20.997Z,20
2017-03-23T06:36:31.277Z,20
2017-03-23T06:37:41.241Z,25
2017-03-23T06:38:51.757Z,25
2017-03-23T06:40:01.413Z,25
2017-03-23T06:41:11.695Z,25
2017-03-23T06:42:21.684Z,25
2017-03-23T06:43:31.956Z,25
2017-03-23T06:44:42.493Z,25
2017-03-23T06:45:52.767Z,25
2017-03-23T06:47:03.042Z,25
2017-03-23T06:48:13.314Z,25
2017-03-23T06:49:23.329Z,25
2017-03-23T06:50:33.563Z,25
2017-03-23T06:51:43.224Z,30
2017-03-23T06:52:53.499Z,30
2017-03-23T06:54:03.453Z,30
2017-03-23T06:55:13.108Z,35
2017-03-23T06:56:23.635Z,35
2017-03-23T06:57:33.287Z,35
2017-03-23T06:58:42.948Z,40
2017-03-23T06:59:52.924Z,40
2017-03-23T07:01:03.197Z,40
2017-03-23T07:02:13.725Z,35
2017-03-23T07:03:23.693Z,35
2017-03-23T07:04:33.982Z,35
2017-03-23T07:05:44.320Z,35
2017-03-23T07:06:54.626Z,35
2017-03-23T07:08:05.174Z,30
2017-03-23T07:09:15.461Z,30
2017-03-23T07:10:25.434Z,30
2017-03-23T07:11:35.712Z,30
2017-03-23T07:12:45.672Z,30
2017-03-23T07:13:56.209Z,30
2017-03-23T07:15:06.509Z,30
2017-03-23T07:16:16.782Z,30
2017-03-23T07:17:27.057Z,30
2017-03-23T07:18:37.319Z,35
2017-03-23T07:19:48.087Z,35
2017-03-23T07:20:58.373Z,35
2017-03-23T07:22:08.350Z,35
2017-03-23T07:23:18.912Z,40
2017-03-23T07:24:29.184Z,40
2017-03-23T07:25:39.770Z,45
2017-03-23T07:26:50.057Z,45
2017-03-23T07:28:00.022Z,45
2017-03-23T07:29:10.294Z,40
2017-03-23T07:30:20.290Z,35
2017-03-23T07:31:30.828Z,35
2017-03-23T07:32:40.821Z,35
2017-03-23T07:33:51.086Z,40
2017-03-23T07:35:01.373Z,40
2017-03-23T07:36:11.664Z,40
2017-03-23T07:37:22.190Z,45
2017-03-23T07:38:32.167Z,45
2017-03-23T07:39:42.488Z,45
2017-03-23T07:40:52.468Z,45
2017-03-23T07:42:02.836Z,50
2017-03-23T07:43:13.397Z,50
2017-03-23T07:44:23.671Z,50
2017-03-23T07:45:33.958Z,55
2017-03-23T07:46:43.614Z,50
2017-03-23T07:47:53.904Z,55
2017-03-23T07:49:03.491Z,60
2017-03-23T07:50:13.151Z,65
2017-03-23T07:51:23.422Z,65
2017-03-23T07:52:33.387Z,70
2017-03-23T07:53:43.729Z,75
2017-03-23T07:54:54.348Z,75
2017-03-23T07:56:04.356Z,80
2017-03-23T07:57:14.366Z,90
2017-03-23T07:58:24.648Z,95
2017-03-23T07:59:34.970Z,100
2017-03-23T08:00:45.512Z,105
2017-03-23T08:01:55.816Z,105
2017-03-23T08:03:06.106Z,100
2017-03-23T08:04:15.764Z,100
2017-03-23T08:05:26.074Z,95
2017-03-23T08:06:36.916Z,95
2017-03-23T08:07:46.651Z,95
2017-03-23T08:08:57.005Z,90
2017-03-23T08:10:07.311Z,90
2017-03-23T08:11:17.630Z,85
2017-03-23T08:12:28.426Z,90
2017-03-23T08:13:38.711Z,90
2017-03-23T08:14:48.377Z,85
2017-03-23T08:15:58.672Z,85
2017-03-23T08:17:08.650Z,85
2017-03-23T08:18:19.193Z,85
2017-03-23T08:19:29.232Z,85
2017-03-23T08:20:39.219Z,85
2017-03-23T08:21:49.491Z,80
2017-03-23T08:22:59.764Z,75
2017-03-23T08:24:10.314Z,70
2017-03-23T08:25:20.610Z,70
2017-03-23T08:26:30.917Z,65
2017-03-23T08:27:41.225Z,65
2017-03-23T08:28:51.935Z,70
2017-03-23T08:30:02.383Z,75
2017-03-23T08:31:12.362Z,80
2017-03-23T08:32:22.707Z,80
2017-03-23T08:33:32.981Z,85
2017-03-23T08:34:43.260Z,80
2017-03-23T08:35:53.768Z,80
2017-03-23T08:37:04.086Z,80
2017-03-23T08:38:14.040Z,85
2017-03-23T08:39:24.326Z,85
2017-03-23T08:40:34.590Z,85
2017-03-23T08:41:44.801Z,85
2017-03-23T08:42:55.082Z,85
2017-03-23T08:44:05.366Z,85
2017-03-23T08:45:15.654Z,85
2017-03-23T08:46:25.619Z,85
2017-03-23T08:47:35.926Z,85
2017-03-23T08:48:46.206Z,85
2017-03-23T08:49:56.479Z,90
2017-03-23T08:51:06.781Z,90
2017-03-23T08:52:17.522Z,90
2017-03-23T08:53:28.329Z,90
2017-03-23T08:54:39.038Z,90
2017-03-23T08:55:50.657Z,90
2017-03-23T08:57:01.197Z,90
2017-03-23T08:58:11.472Z,90
2017-03-23T08:59:21.409Z,90
2017-03-23T09:00:31.706Z,90
2017-03-23T09:01:41.769Z,90
2017-03-23T09:02:52.147Z,90
2017-03-23T09:04:02.430Z,90
2017-03-23T09:05:12.657Z,90
2017-03-23T09:06:22.867Z,90
2017-03-23T09:07:33.153Z,90
2017-03-23T09:08:43.454Z,90
2017-03-23T09:09:54.150Z,90
2017-03-23T09:11:04.399Z,90
2017-03-23T09:12:14.456Z,90
2017-03-23T09:13:24.446Z,90
2017-03-23T09:14:34.427Z,85
2017-03-23T09:15:44.725Z,80
2017-03-23T09:16:55.323Z,75
2017-03-23T09:18:05.641Z,75
2017-03-23T09:19:15.325Z,75
2017-03-23T09:20:25.617Z,75
2017-03-23T09:21:35.900Z,75
2017-03-23T09:22:46.147Z,75
2017-03-23T09:23:55.827Z,75
2017-03-23T09:25:06.107Z,80
2017-03-23T09:26:16.419Z,80
2017-03-23T09:27:26.748Z,85
2017-03-23T09:28:37.325Z,85
2017-03-23T09:29:47.617Z,85
2017-03-23T09:30:57.576Z,90
2017-03-23T09:32:07.850Z,95
2017-03-23T09:33:18.135Z,95
2017-03-23T09:34:28.684Z,100
2017-03-23T09:35:39.008Z,100
2017-03-23T09:36:48.959Z,105
2017-03-23T09:37:59.247Z,110
2017-03-23T09:39:08.926Z,110
2017-03-23T09:40:19.462Z,110
2017-03-23T09:41:29.428Z,110
2017-03-23T09:42:39.111Z,105
2017-03-23T09:43:49.391Z,105
2017-03-23T09:44:58.748Z,100
2017-03-23T09:46:09.267Z,95
2017-03-23T09:47:18.942Z,100
2017-03-23T09:48:28.953Z,100
2017-03-23T09:49:38.957Z,105
2017-03-23T09:50:49.253Z,110
2017-03-23T09:51:59.467Z,115
2017-03-23T09:53:09.754Z,120
2017-03-23T09:54:20.095Z,130
2017-03-23T09:55:30.076Z,135
2017-03-23T09:56:40.469Z,130
2017-03-23T09:57:50.783Z,130
2017-03-23T09:59:00.792Z,130
2017-03-23T10:00:10.461Z,130
2017-03-23T10:01:20.438Z,130
2017-03-23T10:02:30.757Z,120
2017-03-23T10:03:40.663Z,115
2017-03-23T10:04:50.339Z,120
2017-03-23T10:06:00.338Z,120
2017-03-23T10:07:10.313Z,130
2017-03-23T10:08:20.582Z,135
2017-03-23T10:09:31.119Z,140
2017-03-23T10:10:40.765Z,140
2017-03-23T10:11:50.749Z,145
2017-03-23T10:13:00.421Z,150
2017-03-23T10:14:10.701Z,160
2017-03-23T10:15:20.915Z,160
2017-03-23T10:16:30.565Z,155
2017-03-23T10:17:40.836Z,155
2017-03-23T10:18:50.797Z,145
2017-03-23T10:20:00.761Z,140
2017-03-23T10:21:11.069Z,135
2017-03-23T10:22:21.370Z,135
2017-03-23T10:23:31.023Z,135
2017-03-23T10:24:40.671Z,140
2017-03-23T10:25:50.648Z,135
2017-03-23T10:27:01.239Z,135
2017-03-23T10:28:11.513Z,135
2017-03-23T10:29:21.794Z,125
2017-03-23T10:30:32.090Z,125
2017-03-23T10:31:42.409Z,120
2017-03-23T10:32:52.941Z,115
2017-03-23T10:34:03.227Z,100
2017-03-23T10:35:13.509Z,85
2017-03-23T10:36:23.472Z,80
2017-03-23T10:37:33.749Z,80
2017-03-23T10:38:44.328Z,80
2017-03-23T10:39:54.294Z,80
2017-03-23T10:41:04.587Z,85
2017-03-23T10:42:14.592Z,90
2017-03-23T10:43:24.884Z,95
2017-03-23T10:44:35.434Z,95
2017-03-23T10:45:45.412Z,90
2017-03-23T10:46:55.730Z,75
2017-03-23T10:48:06.079Z,70
2017-03-23T10:49:15.782Z,70
2017-03-23T10:50:26.636Z,70
2017-03-23T10:51:37.184Z,70
2017-03-23T10:52:47.544Z,70
2017-03-23T10:53:57.862Z,70
2017-03-23T10:55:08.193Z,70
2017-03-23T10:56:18.408Z,70
2017-03-23T10:57:28.700Z,65
2017-03-23T10:58:39.256Z,60
2017-03-23T10:59:49.572Z,60
2017-03-23T11:00:59.849Z,55
2017-03-23T11:02:10.383Z,55
2017-03-23T11:03:20.392Z,50
2017-03-23T11:04:30.736Z,50
2017-03-23T11:05:40.737Z,50
2017-03-23T11:06:50.699Z,45
2017-03-23T11:08:00.667Z,45
2017-03-23T11:09:10.965Z,40
2017-03-23T11:10:20.621Z,40
2017-03-23T11:11:30.611Z,40
2017-03-23T11:12:40.343Z,35
2017-03-23T11:13:50.914Z,35
2017-03-23T11:15:00.880Z,40
2017-03-23T11:16:10.880Z,40
2017-03-23T11:17:20.864Z,40
2017-03-23T11:18:30.861Z,35
2017-03-23T11:19:41.415Z,40
2017-03-23T11:20:51.436Z,35
2017-03-23T11:22:01.703Z,30
2017-03-23T11:23:11.364Z,30
2017-03-23T11:24:21.641Z,35
2017-03-23T11:25:31.861Z,40
2017-03-23T11:26:41.865Z,40
2017-03-23T11:27:52.205Z,40
2017-03-23T11:29:02.487Z,35
2017-03-23T11:30:12.798Z,30
2017-03-23T11:31:22.737Z,40
2017-03-23T11:32:33.131Z,45
2017-03-23T11:33:42.809Z,45
2017-03-23T11:34:53.094Z,40
2017-03-23T11:36:03.416Z,45
2017-03-23T11:37:14.010Z,45
2017-03-23T11:38:24.303Z,45
2017-03-23T11:39:34.633Z,50
2017-03-23T11:40:44.930Z,50
2017-03-23T11:41:54.600Z,45
2017-03-23T11:43:05.174Z,45
2017-03-23T11:44:15.474Z,40
2017-03-23T11:45:25.760Z,40
2017-03-23T11:46:35.720Z,45
2017-03-23T11:47:46.002Z,50
2017-03-23T11:48:56.586Z,50
2017-03-23T11:50:06.549Z,55
2017-03-23T11:51:16.833Z,55
2017-03-23T11:52:26.507Z,50
2017-03-23T11:53:36.776Z,45
2017-03-23T11:54:46.982Z,45
2017-03-23T11:55:56.637Z,45
2017-03-23T11:57:06.594Z,40
2017-03-23T11:58:16.950Z,40
2017-03-23T11:59:27.230Z,40
2017-03-23T12:00:37.487Z,40
2017-03-23T12:01:46.835Z,40
2017-03-23T12:02:56.811Z,40
2017-03-23T12:04:07.081Z,35
2017-03-23T12:05:17.366Z,35
2017-03-23T12:06:27.587Z,45
2017-03-23T12:07:37.867Z,45
2017-03-23T12:08:47.843Z,45
2017-03-23T12:09:57.177Z,45
2017-03-23T12:11:07.140Z,45
2017-03-23T12:12:17.763Z,40
2017-03-23T12:13:28.062Z,40
2017-03-23T12:14:38.372Z,40
2017-03-23T12:15:48.670Z,40
2017-03-23T12:16:58.950Z,40
2017-03-23T12:18:09.485Z,40
2017-03-23T12:19:19.443Z,40
2017-03-23T12:20:29.728Z,40
2017-03-23T12:21:40.001Z,40
2017-03-23T12:22:49.965Z,45
2017-03-23T12:24:00.533Z,45
2017-03-23T12:25:10.554Z,50
2017-03-23T12:26:20.544Z,50
2017-03-23T12:27:30.193Z,55
2017-03-23T12:28:40.509Z,55
2017-03-23T12:29:51.050Z,60
2017-03-23T12:31:01.348Z,60
2017-03-23T12:32:11.642Z,60
2017-03-23T12:33:21.635Z,60
2017-03-23T12:34:31.907Z,55
2017-03-23T12:35:42.486Z,55
2017-03-23T12:36:52.461Z,55
2017-03-23T12:38:02.435Z,55
2017-03-23T12:39:12.406Z,55
2017-03-23T12:40:22.379Z,55
2017-03-23T12:41:32.329Z,55
2017-03-23T12:42:42.294Z,60
2017-03-23T12:43:52.250Z,65
2017-03-23T12:45:02.211Z,65
2017-03-23T12:46:11.244Z,65
2017-03-23T12:47:21.482Z,70
2017-03-23T12:48:30.824Z,65
2017-03-23T12:49:41.099Z,60
2017-03-23T12:50:51.368Z,60
2017-03-23T12:52:01.329Z,60
2017-03-23T12:53:11.858Z,65
2017-03-23T12:54:22.148Z,70
2017-03-23T12:55:32.427Z,75
2017-03-23T12:56:42.693Z,70
2017-03-23T12:57:52.655Z,70
2017-03-23T12:59:03.176Z,70
2017-03-23T13:00:12.820Z,70
2017-03-23T13:01:22.891Z,70
2017-03-23T13:02:32.594Z,70
2017-03-23T13:03:42.879Z,75
2017-03-23T13:04:52.848Z,75
2017-03-23T13:06:03.135Z,80
2017-03-23T13:07:12.787Z,80
2017-03-23T13:08:23.068Z,80
2017-03-23T13:09:33.363Z,80
2017-03-23T13:10:43.899Z,80
2017-03-23T13:11:53.867Z,75
2017-03-23T13:13:04.145Z,80
2017-03-23T13:14:14.417Z,85
2017-03-23T13:15:24.704Z,85
2017-03-23T13:16:34.970Z,85
2017-03-23T13:17:44.633Z,85
2017-03-23T13:18:54.632Z,90
2017-03-23T13:20:03.991Z,90
2017-03-23T13:21:14.261Z,95
2017-03-23T13:22:24.782Z,95
2017-03-23T13:23:35.054Z,90
2017-03-23T13:24:45.336Z,95
2017-03-23T13:25:55.303Z,95
2017-03-23T13:27:05.578Z,85
2017-03-23T13:28:16.103Z,85
2017-03-23T13:29:25.753Z,90
2017-03-23T13:30:36.029Z,85
2017-03-23T13:31:45.674Z,85
2017-03-23T13:32:55.324Z,75
2017-03-23T13:34:05.903Z,80
2017-03-23T13:35:15.875Z,80
2017-03-23T13:36:25.859Z,80
2017-03-23T13:37:35.851Z,80
2017-03-23T13:38:45.829Z,65
2017-03-23T13:39:56.361Z,65
2017-03-23T13:41:06.631Z,80
2017-03-23T13:42:16.916Z,80
2017-03-23T13:43:26.869Z,75
2017-03-23T13:44:37.150Z,65
2017-03-23T13:45:47.366Z,65
2017-03-23T13:46:57.634Z,70
2017-03-23T13:48:07.908Z,80
2017-03-23T13:49:17.886Z,65
2017-03-23T13:50:27.855Z,55
2017-03-23T13:51:38.345Z,50
2017-03-23T13:52:48.020Z,55
2017-03-23T13:53:58.313Z,50
2017-03-23T13:55:08.280Z,50
2017-03-23T13:56:18.267Z,60
2017-03-23T13:57:28.483Z,60
2017-03-23T13:58:38.479Z,50
2017-03-23T13:59:48.451Z,40
2017-03-23T14:00:58.421Z,40
2017-03-23T14:02:08.067Z,40
2017-03-23T14:03:18.595Z,40
2017-03-23T14:04:28.562Z,35
2017-03-23T14:05:38.835Z,30
2017-03-23T14:06:48.793Z,30
2017-03-23T14:07:59.067Z,35
2017-03-23T14:09:09.277Z,35
2017-03-23T14:10:18.957Z,45
2017-03-23T14:11:28.635Z,50
2017-03-23T14:12:38.918Z,45
2017-03-23T14:13:48.929Z,55
2017-03-23T14:14:59.466Z,60
2017-03-23T14:16:09.439Z,55
2017-03-23T14:17:19.712Z,55
2017-03-23T14:18:29.987Z,50
2017-03-23T14:19:40.263Z,50
2017-03-23T14:20:50.836Z,55
2017-03-23T14:22:01.106Z,55
2017-03-23T14:23:10.763Z,55
2017-03-23T14:24:20.730Z,50
2017-03-23T14:25:31.008Z,55
2017-03-23T14:26:41.227Z,55
2017-03-23T14:27:51.509Z,40
2017-03-23T14:29:01.793Z,30
2017-03-23T14:30:12.067Z,30
2017-03-23T14:31:22.023Z,30
2017-03-23T14:32:32.601Z,40
2017-03-23T14:33:42.587Z,45
2017-03-23T14:34:52.862Z,45
2017-03-23T14:36:03.128Z,45
2017-03-23T14:37:12.795Z,50
2017-03-23T14:38:23.322Z,45
2017-03-23T14:39:32.969Z,45
2017-03-23T14:40:43.246Z,40
2017-03-23T14:41:52.908Z,35
2017-03-23T14:43:02.901Z,40
2017-03-23T14:44:13.429Z,40
2017-03-23T14:45:23.739Z,35
2017-03-23T14:46:34.009Z,30
2017-03-23T14:47:44.291Z,30
2017-03-23T14:48:54.259Z,30
2017-03-23T14:50:04.491Z,30
2017-03-23T14:51:13.864Z,30
2017-03-23T14:52:23.833Z,25
2017-03-23T14:53:34.126Z,25
2017-03-23T14:54:44.407Z,25
2017-03-23T14:55:54.669Z,25
2017-03-23T14:57:04.331Z,25
2017-03-23T14:58:14.292Z,25
2017-03-23T14:59:24.579Z,25
2017-03-23T15:00:34.254Z,25
2017-03-23T15:01:44.462Z,30
2017-03-23T15:02:54.759Z,25
2017-03-23T15:04:04.720Z,25
2017-03-23T15:05:14.702Z,25
2017-03-23T15:06:24.668Z,25
2017-03-23T15:07:35.286Z,25
2017-03-23T15:08:45.559Z,30
2017-03-23T15:09:55.848Z,25
2017-03-23T15:11:06.135Z,25
2017-03-23T15:12:16.421Z,25
2017-03-23T15:13:26.979Z,25
2017-03-23T15:14:37.258Z,25
2017-03-23T15:15:47.536Z,30
2017-03-23T15:16:57.829Z,30
2017-03-23T15:18:07.816Z,30
2017-03-23T15:19:18.347Z,25
2017-03-23T15:20:28.322Z,25
2017-03-23T15:21:38.298Z,25
2017-03-23T15:22:48.268Z,25
2017-03-23T15:23:58.558Z,25
2017-03-23T15:25:09.088Z,25
2017-03-23T15:26:19.368Z,20
2017-03-23T15:27:29.653Z,20
2017-03-23T15:28:39.619Z,20
2017-03-23T15:29:49.589Z,20
2017-03-23T15:31:00.124Z,20
2017-03-23T15:32:10.407Z,20
2017-03-23T15:33:20.682Z,20
2017-03-23T15:34:30.644Z,20
2017-03-23T15:35:40.616Z,20
2017-03-23T15:36:51.153Z,20
2017-03-23T15:38:00.794Z,20
2017-03-23T15:39:11.094Z,20
2017-03-23T15:40:21.386Z,15
2017-03-23T15:41:31.050Z,15
2017-03-23T15:42:41.594Z,15
2017-03-23T15:43:51.270Z,15
2017-03-23T15:45:01.261Z,15
2017-03-23T15:46:11.265Z,10
2017-03-23T15:47:21.259Z,10
2017-03-23T15:48:31.220Z,10
2017-03-23T15:49:41.533Z,10
2017-03-23T15:50:51.828Z,10
2017-03-23T15:52:02.121Z,15
2017-03-23T15:53:12.155Z,15
2017-03-23T15:54:22.376Z,15
2017-03-23T15:55:32.685Z,15
2017-03-23T15:56:42.965Z,15
2017-03-23T15:57:52.629Z,15
2017-03-23T15:59:02.595Z,15
2017-03-23T16:00:12.908Z,15
2017-03-23T16:01:23.199Z,15
2017-03-23T16:02:33.501Z,15
2017-03-23T16:03:43.169Z,15
2017-03-23T16:04:53.454Z,15
2017-03-23T16:06:03.050Z,10
2017-03-23T16:07:13.024Z,10
2017-03-23T16:08:23.039Z,10
2017-03-23T16:09:33.323Z,10
2017-03-23T16:10:43.621Z,10
2017-03-23T16:11:54.268Z,10
2017-03-23T16:13:04.581Z,10
2017-03-23T16:14:14.881Z,10
2017-03-23T16:15:25.184Z,10
2017-03-23T16:16:35.220Z,10
2017-03-23T16:17:45.826Z,10
2017-03-23T16:18:56.114Z,10
2017-03-23T16:20:06.406Z,10
2017-03-23T16:21:16.075Z,10
2017-03-23T16:22:26.374Z,5
2017-03-23T16:23:36.933Z,5
2017-03-23T16:24:46.930Z,5
2017-03-23T16:25:57.242Z,5
2017-03-23T16:27:07.540Z,5
2017-03-23T16:28:17.841Z,5
2017-03-23T16:29:28.407Z,5
2017-03-23T16:30:38.403Z,5
2017-03-23T16:31:48.975Z,5
2017-03-23T16:32:58.993Z,10
2017-03-23T16:34:08.990Z,5
2017-03-23T16:35:19.590Z,5
2017-03-23T16:36:29.652Z,5
2017-03-23T16:37:39.973Z,5
2017-03-23T16:38:49.960Z,5
2017-03-23T16:40:00.288Z,5
2017-03-23T16:41:10.831Z,5
2017-03-23T16:42:21.157Z,5
2017-03-23T16:43:31.159Z,5
2017-03-23T16:44:41.496Z,5
2017-03-23T16:45:51.494Z,5
2017-03-23T16:47:02.120Z,5
2017-03-23T16:48:12.409Z,5
2017-03-23T16:49:22.778Z,5
2017-03-23T16:50:33.110Z,5
2017-03-23T16:51:43.438Z,5
2017-03-23T16:52:53.385Z,5
2017-03-23T16:54:03.110Z,5
2017-03-23T16:55:13.444Z,5
2017-03-23T16:56:23.883Z,5
2017-03-23T16:57:33.871Z,5
2017-03-23T16:58:44.427Z,0
2017-03-23T16:59:54.465Z,0
2017-03-23T17:01:04.157Z,0
2017-03-23T17:02:14.178Z,0
2017-03-23T17:03:24.493Z,0
2017-03-23T17:04:34.823Z,0
2017-03-23T17:05:44.824Z,0
2017-03-23T17:06:55.125Z,0
2017-03-23T17:08:05.476Z,0
2017-03-23T17:09:15.488Z,0
2017-03-23T17:10:25.756Z,0
2017-03-23T17:11:35.796Z,0
2017-03-23T17:12:46.153Z,0
2017-03-23T17:13:56.176Z,0
2017-03-23T17:15:06.484Z,0
2017-03-23T17:16:17.120Z,0
2017-03-23T17:17:27.134Z,0
2017-03-23T17:18:37.195Z,0
2017-03-23T17:19:47.207Z,0
2017-03-23T17:20:57.558Z,0
2017-03-23T17:22:08.199Z,0
2017-03-23T17:23:18.522Z,0
2017-03-23T17:24:27.905Z,0
2017-03-23T17:25:38.227Z,0
2017-03-23T17:26:48.580Z,0
2017-03-23T17:27:58.917Z,0
2017-03-23T17:29:09.261Z,0
2017-03-23T17:30:19.618Z,0
2017-03-23T17:31:29.920Z,0
2017-03-23T17:32:40.260Z,0
2017-03-23T17:33:50.887Z,0
2017-03-23T17:35:00.592Z,0
2017-03-23T17:36:10.592Z,0
2017-03-23T17:37:20.614Z,0
2017-03-23T17:38:30.653Z,0
2017-03-23T17:39:40.934Z,0
2017-03-23T17:40:50.942Z,0
2017-03-23T17:42:00.960Z,0
2017-03-23T17:43:10.341Z,0
2017-03-23T17:44:20.334Z,0
2017-03-23T17:45:30.953Z,0
2017-03-23T17:46:41.277Z,0
2017-03-23T17:47:51.606Z,0
2017-03-23T17:49:01.927Z,0
2017-03-23T17:50:12.266Z,0
2017-03-23T17:51:25.738Z,0
2017-03-23T17:52:35.722Z,0
2017-03-23T17:53:45.749Z,0
2017-03-23T17:54:55.751Z,0
2017-03-23T17:56:05.803Z,0
2017-03-23T17:57:15.828Z,0
2017-03-23T17:58:26.429Z,0
2017-03-23T17:59:36.739Z,0
2017-03-23T18:00:47.085Z,0
2017-03-23T18:01:57.084Z,0
2017-03-23T18:03:07.754Z,0
2017-03-23T18:04:18.064Z,0
2017-03-23T18:05:28.132Z,0
2017-03-23T18:06:38.159Z,0
2017-03-23T18:07:47.835Z,0
2017-03-23T18:08:58.131Z,0
2017-03-23T18:10:08.450Z,0
2017-03-23T18:11:18.148Z,0
2017-03-23T18:12:28.468Z,0
2017-03-23T18:13:38.830Z,0
2017-03-23T18:14:49.061Z,0
2017-03-23T18:15:59.408Z,0
2017-03-23T18:17:09.434Z,0
2017-03-23T18:18:19.459Z,0
2017-03-23T18:19:29.464Z,0
2017-03-23T18:20:39.760Z,0
2017-03-23T18:21:50.183Z,0
2017-03-23T18:22:59.884Z,0
2017-03-23T18:24:10.313Z,0
2017-03-23T18:25:20.297Z,0
2017-03-23T18:26:30.297Z,0
2017-03-23T18:27:40.644Z,0
2017-03-23T18:28:50.688Z,0
2017-03-23T18:30:01.049Z,0
2017-03-23T18:31:11.048Z,0
2017-03-23T18:32:21.661Z,0
2017-03-23T18:33:31.350Z,0
2017-03-23T18:34:41.069Z,0
2017-03-23T18:35:51.065Z,0
2017-03-23T18:37:00.840Z,0
2017-03-23T18:38:11.153Z,0
2017-03-23T18:39:21.180Z,0
2017-03-23T18:40:30.917Z,0
2017-03-23T18:41:41.320Z,0
2017-03-23T18:42:51.631Z,0
2017-03-23T18:44:02.274Z,0
2017-03-23T18:45:12.625Z,0
2017-03-23T18:46:22.956Z,0
2017-03-23T18:47:33.335Z,0
2017-03-23T18:48:43.025Z,0
2017-03-23T18:49:53.675Z,0
2017-03-23T18:51:03.992Z,0
2017-03-23T18:52:14.370Z,0
2017-03-23T18:53:24.371Z,0
2017-03-23T18:54:34.396Z,0
2017-03-23T18:55:44.374Z,0
2017-03-23T18:56:54.731Z,0
2017-03-23T18:58:04.780Z,0
2017-03-23T18:59:14.468Z,0
2017-03-23T19:00:24.831Z,0
2017-03-23T19:01:35.142Z,0
2017-03-23T19:02:45.508Z,0
2017-03-23T19:03:55.829Z,0
2017-03-23T19:05:05.865Z,0
2017-03-23T19:06:16.222Z,0
2017-03-23T19:07:26.864Z,0
2017-03-23T19:08:36.935Z,0
2017-03-23T19:09:46.938Z,0
2017-03-23T19:10:56.954Z,0
2017-03-23T19:12:07.296Z,0
2017-03-23T19:13:17.647Z,0
2017-03-23T19:14:27.654Z,0
2017-03-23T19:15:38.072Z,0
2017-03-23T19:16:48.161Z,0
2017-03-23T19:17:58.544Z,0
2017-03-23T19:19:08.892Z,0
2017-03-23T19:20:19.286Z,0
2017-03-23T19:21:29.333Z,0
2017-03-23T19:22:39.370Z,0
2017-03-23T19:23:49.459Z,0
2017-03-23T19:24:59.822Z,0
2017-03-23T19:26:09.876Z,0
2017-03-23T19:27:19.923Z,0
2017-03-23T19:28:30.284Z,0
2017-03-23T19:29:40.019Z,0
2017-03-23T19:30:50.650Z,0
2017-03-23T19:32:01.057Z,0
2017-03-23T19:33:10.152Z,0
2017-03-23T19:34:20.238Z,0
2017-03-23T19:35:30.261Z,0
2017-03-23T19:36:40.262Z,0
2017-03-23T19:37:50.319Z,0
2017-03-23T19:39:00.354Z,0
2017-03-23T19:40:10.379Z,0
2017-03-23T19:41:20.447Z,0
2017-03-23T19:42:30.904Z,0
2017-03-23T19:43:40.940Z,0
2017-03-23T19:44:50.720Z,0
2017-03-23T19:46:01.085Z,0
2017-03-23T19:47:11.106Z,0
2017-03-23T19:48:21.726Z,0
2017-03-23T19:49:32.099Z,0
2017-03-23T19:50:41.823Z,0
2017-03-23T19:51:51.520Z,0
2017-03-23T19:53:01.597Z,0
2017-03-23T19:54:11.933Z,0
2017-03-23T19:55:22.298Z,0
2017-03-23T19:56:32.006Z,0
2017-03-23T19:57:42.373Z,0
2017-03-23T19:58:52.434Z,0
2017-03-23T20:00:02.768Z,0
2017-03-23T20:01:13.155Z,0
2017-03-23T20:02:23.154Z,0
2017-03-23T20:03:33.211Z,0
2017-03-23T20:04:43.229Z,0
2017-03-23T20:05:53.890Z,0
2017-03-23T20:07:03.931Z,0
2017-03-23T20:08:14.305Z,0
2017-03-23T20:09:24.689Z,0
2017-03-23T20:10:35.047Z,0
2017-03-23T20:11:45.385Z,0
2017-03-23T20:12:55.766Z,0
2017-03-23T20:14:05.828Z,0
2017-03-23T20:15:15.551Z,0
2017-03-23T20:16:25.920Z,0
2017-03-23T20:17:36.524Z,0
2017-03-23T20:18:46.903Z,0
2017-03-23T20:19:56.298Z,0
2017-03-23T20:21:06.658Z,0
2017-03-23T20:22:16.702Z,0
2017-03-23T20:23:27.318Z,0
2017-03-23T20:24:37.361Z,0
2017-03-23T20:25:47.726Z,0
2017-03-23T20:26:57.795Z,0
2017-03-23T20:28:08.163Z,0
2017-03-23T20:29:18.575Z,0
2017-03-23T20:30:28.289Z,0
2017-03-23T20:31:38.633Z,0
2017-03-23T20:32:48.971Z,0
2017-03-23T20:33:59.347Z,0
2017-03-23T20:35:10.011Z,0
2017-03-23T20:36:19.732Z,0
2017-03-23T20:37:29.779Z,0
2017-03-23T20:38:39.823Z,0